Time,TemperatureF,DewpointF,PressureIn,WindDirection,WindDirectionDegrees,WindSpeedMPH,WindSpeedGustMPH,Humidity,HourlyPrecipIn,Conditions,Clouds,dailyrainin,SoftwareType,DateUTC
2015-04-25 00:03:00,58.0,45.9,29.87,South,170,2.0,2.0,64,0.00,,,0.00,WeatherCatV1.24B11,2015-04-25 04:03:00,
2015-04-25 00:08:00,58.0,46.3,29.87,South,170,0.0,0.0,65,0.00,,,0.00,WeatherCatV1.24B11,2015-04-25 04:08:00,
2015-04-25 00:13:00,58.0,45.9,29.86,South,170,0.0,0.0,64,0.00,,,0.00,WeatherCatV1.24B11,2015-04-25 04:13:00,
2015-04-25 00:18:00,58.0,46.3,29.86,South,170,2.0,2.0,65,0.00,,,0.00,WeatherCatV1.24B11,2015-04-25 04:18:00,
2015-04-25 00:23:00,57.9,46.2,29.87,South,170,1.0,1.0,65,0.00,,,0.00,WeatherCatV1.24B11,2015-04-25 04:23:00,
2015-04-25 00:28:00,57.8,46.9,29.86,South,170,2.0,4.0,67,0.00,,,0.00,WeatherCatV1.24B11,2015-04-25 04:28:00,
2015-04-25 00:33:00,57.7,46.4,29.86,South,170,0.0,0.0,66,0.00,,,0.00,WeatherCatV1.24B11,2015-04-25 04:33:00,
2015-04-25 00:38:00,57.7,46.0,29.86,South,170,0.0,0.0,65,0.00,,,0.00,WeatherCatV1.24B11,2015-04-25 04:38:00,
2015-04-25 00:43:00,57.7,45.6,29.86,South,170,0.0,0.0,64,0.00,,,0.00,WeatherCatV1.24B11,2015-04-25 04:43:00,
2015-04-25 00:48:00,57.6,45.5,29.86,South,170,0.0,0.0,64,0.00,,,0.00,WeatherCatV1.24B11,2015-04-25 04:48:00,
2015-04-25 00:53:00,57.6,45.9,29.86,South,170,2.0,4.0,65,0.00,,,0.00,WeatherCatV1.24B11,2015-04-25 04:53:00,
2015-04-25 00:58:00,57.5,46.6,29.86,South,170,0.0,2.0,67,0.00,,,0.00,WeatherCatV1.24B11,2015-04-25 04:58:00,
2015-04-25 01:03:00,57.4,46.1,29.86,South,170,0.0,0.0,66,0.00,,,0.00,WeatherCatV1.24B11,2015-04-25 05:03:00,
2015-04-25 01:08:00,57.4,47.3,29.87,South,170,0.0,0.0,69,0.00,,,0.00,WeatherCatV1.24B11,2015-04-25 05:08:00,
2015-04-25 01:13:00,57.2,47.1,29.87,South,170,1.0,4.0,69,0.00,,,0.00,WeatherCatV1.24B11,2015-04-25 05:13:00,
2015-04-25 01:18:00,57.1,47.0,29.86,South,170,0.0,0.0,69,0.00,,,0.00,WeatherCatV1.24B11,2015-04-25 05:18:00,
2015-04-25 01:23:00,57.0,46.5,29.86,South,170,0.0,0.0,68,0.00,,,0.00,WeatherCatV1.24B11,2015-04-25 05:23:00,
2015-04-25 01:28:00,56.9,47.6,29.85,South,170,0.0,1.0,71,0.00,,,0.00,WeatherCatV1.24B11,2015-04-25 05:28:00,
2015-04-25 01:33:00,56.7,46.6,29.85,South,170,0.0,0.0,69,0.00,,,0.00,WeatherCatV1.24B11,2015-04-25 05:33:00,
2015-04-25 01:38:00,56.6,47.3,29.84,South,170,0.0,0.0,71,0.00,,,0.00,WeatherCatV1.24B11,2015-04-25 05:38:00,
2015-04-25 01:43:00,56.5,47.2,29.84,South,170,0.0,0.0,71,0.00,,,0.00,WeatherCatV1.24B11,2015-04-25 05:43:00,
2015-04-25 01:48:00,56.4,47.5,29.84,South,170,0.0,0.0,72,0.00,,,0.00,WeatherCatV1.24B11,2015-04-25 05:48:00,
2015-04-25 01:53:00,56.2,46.9,29.83,South,170,0.0,0.0,71,0.00,,,0.00,WeatherCatV1.24B11,2015-04-25 05:53:00,
2015-04-25 01:58:00,56.2,47.3,29.84,South,170,0.0,0.0,72,0.00,,,0.00,WeatherCatV1.24B11,2015-04-25 05:58:00,
2015-04-25 02:03:00,56.1,46.8,29.84,South,170,0.0,0.0,71,0.00,,,0.00,WeatherCatV1.24B11,2015-04-25 06:03:00,
2015-04-25 02:08:00,56.1,47.6,29.84,South,170,0.0,0.0,73,0.00,,,0.00,WeatherCatV1.24B11,2015-04-25 06:08:00,
2015-04-25 02:13:00,56.1,47.6,29.84,South,170,0.0,0.0,73,0.00,,,0.00,WeatherCatV1.24B11,2015-04-25 06:13:00,
2015-04-25 02:18:00,56.1,47.9,29.84,South,170,0.0,0.0,74,0.00,,,0.00,WeatherCatV1.24B11,2015-04-25 06:18:00,
2015-04-25 02:23:00,56.0,47.8,29.84,South,170,0.0,0.0,74,0.00,,,0.00,WeatherCatV1.24B11,2015-04-25 06:23:00,
2015-04-25 02:28:00,55.9,47.7,29.84,South,170,0.0,0.0,74,0.00,,,0.00,WeatherCatV1.24B11,2015-04-25 06:28:00,
2015-04-25 02:38:00,55.7,47.9,29.85,South,170,0.0,0.0,75,0.00,,,0.00,WeatherCatV1.24B11,2015-04-25 06:38:00,
2015-04-25 02:43:00,55.6,48.2,29.85,South,170,0.0,0.0,76,0.00,,,0.00,WeatherCatV1.24B11,2015-04-25 06:43:00,
2015-04-25 02:48:00,55.4,48.7,29.85,South,170,0.0,0.0,78,0.00,,,0.00,WeatherCatV1.24B11,2015-04-25 06:48:00,
2015-04-25 02:53:00,55.3,48.9,29.85,South,170,0.0,0.0,79,0.00,,,0.00,WeatherCatV1.24B11,2015-04-25 06:53:00,
2015-04-25 02:58:00,55.0,48.9,29.85,South,170,0.0,1.0,80,0.00,,,0.00,WeatherCatV1.24B11,2015-04-25 06:58:00,
2015-04-25 03:03:00,54.7,49.0,29.85,South,170,0.0,0.0,81,0.00,,,0.01,WeatherCatV1.24B11,2015-04-25 07:03:00,
2015-04-25 03:08:00,54.3,48.9,29.85,South,170,1.0,2.0,82,0.09,,,0.02,WeatherCatV1.24B11,2015-04-25 07:08:00,
2015-04-25 03:13:00,54.0,49.3,29.85,South,170,0.0,0.0,84,0.09,,,0.02,WeatherCatV1.24B11,2015-04-25 07:13:00,
2015-04-25 03:18:00,53.7,49.3,29.84,South,170,0.0,0.0,85,0.06,,,0.03,WeatherCatV1.24B11,2015-04-25 07:18:00,
2015-04-25 03:23:00,53.4,49.0,29.84,South,170,0.0,0.0,85,0.06,,,0.03,WeatherCatV1.24B11,2015-04-25 07:23:00,
2015-04-25 03:28:00,53.2,48.8,29.84,South,170,0.0,0.0,85,0.05,,,0.03,WeatherCatV1.24B11,2015-04-25 07:28:00,
2015-04-25 03:33:00,53.1,49.0,29.83,South,170,0.0,0.0,86,0.05,,,0.04,WeatherCatV1.24B11,2015-04-25 07:33:00,
2015-04-25 03:38:00,53.0,48.9,29.83,South,170,0.0,0.0,86,0.05,,,0.04,WeatherCatV1.24B11,2015-04-25 07:38:00,
2015-04-25 03:43:00,52.9,48.8,29.83,South,170,0.0,0.0,86,0.04,,,0.04,WeatherCatV1.24B11,2015-04-25 07:43:00,
2015-04-25 03:48:00,52.9,49.1,29.83,South,170,0.0,0.0,87,0.00,,,0.04,WeatherCatV1.24B11,2015-04-25 07:48:00,
2015-04-25 03:53:00,52.8,49.0,29.83,South,170,0.0,0.0,87,0.00,,,0.05,WeatherCatV1.24B11,2015-04-25 07:53:00,
2015-04-25 03:58:00,52.7,48.9,29.84,South,170,0.0,2.0,87,0.00,,,0.05,WeatherCatV1.24B11,2015-04-25 07:58:00,
2015-04-25 04:03:00,52.7,48.9,29.84,South,170,0.0,0.0,87,0.00,,,0.05,WeatherCatV1.24B11,2015-04-25 08:03:00,
2015-04-25 04:08:00,52.8,49.0,29.83,South,170,0.0,0.0,87,0.00,,,0.05,WeatherCatV1.24B11,2015-04-25 08:08:00,
2015-04-25 04:13:00,52.9,49.1,29.82,South,170,1.0,2.0,87,0.00,,,0.06,WeatherCatV1.24B11,2015-04-25 08:13:00,
2015-04-25 04:18:00,52.8,49.0,29.82,South,170,1.0,2.0,87,0.00,,,0.06,WeatherCatV1.24B11,2015-04-25 08:18:00,
2015-04-25 04:23:00,52.8,49.0,29.82,South,170,0.0,0.0,87,0.00,,,0.06,WeatherCatV1.24B11,2015-04-25 08:23:00,
2015-04-25 04:28:00,52.8,49.3,29.81,South,170,0.0,0.0,88,0.00,,,0.06,WeatherCatV1.24B11,2015-04-25 08:28:00,
2015-04-25 04:33:00,52.8,49.3,29.81,South,170,0.0,0.0,88,0.00,,,0.07,WeatherCatV1.24B11,2015-04-25 08:33:00,
2015-04-25 04:38:00,52.9,49.4,29.81,South,170,0.0,0.0,88,0.00,,,0.07,WeatherCatV1.24B11,2015-04-25 08:38:00,
2015-04-25 04:43:00,53.0,49.5,29.81,South,170,1.0,1.0,88,0.05,,,0.08,WeatherCatV1.24B11,2015-04-25 08:43:00,
2015-04-25 04:48:00,53.0,49.5,29.80,West,261,1.0,4.0,88,0.05,,,0.08,WeatherCatV1.24B11,2015-04-25 08:48:00,
2015-04-25 04:53:00,52.9,49.4,29.80,WNW,298,5.0,8.0,88,0.05,,,0.08,WeatherCatV1.24B11,2015-04-25 08:53:00,
2015-04-25 04:58:00,53.0,49.5,29.80,WNW,294,4.0,9.0,88,0.04,,,0.08,WeatherCatV1.24B11,2015-04-25 08:58:00,
2015-04-25 05:03:00,53.0,49.5,29.80,WNW,294,5.0,5.0,88,0.00,,,0.08,WeatherCatV1.24B11,2015-04-25 09:03:00,
2015-04-25 05:08:00,53.1,49.6,29.80,WNW,296,5.0,6.0,88,0.00,,,0.09,WeatherCatV1.24B11,2015-04-25 09:08:00,
2015-04-25 05:13:00,53.2,49.7,29.80,WNW,292,4.0,5.0,88,0.00,,,0.09,WeatherCatV1.24B11,2015-04-25 09:13:00,
2015-04-25 05:18:00,53.3,49.8,29.80,WNW,292,0.0,0.0,88,0.00,,,0.09,WeatherCatV1.24B11,2015-04-25 09:18:00,
2015-04-25 05:23:00,53.3,49.8,29.81,WNW,292,0.0,0.0,88,0.00,,,0.09,WeatherCatV1.24B11,2015-04-25 09:23:00,
2015-04-25 05:28:00,53.3,49.8,29.81,WNW,292,4.0,4.0,88,0.00,,,0.10,WeatherCatV1.24B11,2015-04-25 09:28:00,
2015-04-25 05:33:00,53.3,49.8,29.81,WNW,292,2.0,5.0,88,0.59,,,0.13,WeatherCatV1.24B11,2015-04-25 09:33:00,
2015-04-25 05:38:00,53.3,49.8,29.81,WNW,292,0.0,0.0,88,0.18,,,0.14,WeatherCatV1.24B11,2015-04-25 09:38:00,
2015-04-25 05:43:00,53.3,49.8,29.80,WNW,292,0.0,0.0,88,0.09,,,0.15,WeatherCatV1.24B11,2015-04-25 09:43:00,
2015-04-25 05:48:00,53.3,49.8,29.80,WNW,292,0.0,0.0,88,0.09,,,0.15,WeatherCatV1.24B11,2015-04-25 09:48:00,
2015-04-25 05:53:00,53.4,49.9,29.80,WNW,292,0.0,0.0,88,0.06,,,0.15,WeatherCatV1.24B11,2015-04-25 09:53:00,
2015-04-25 05:58:00,53.4,49.9,29.80,WNW,292,0.0,0.0,88,0.04,,,0.16,WeatherCatV1.24B11,2015-04-25 09:58:00,
2015-04-25 06:03:00,53.4,49.9,29.79,WNW,292,0.0,0.0,88,0.04,,,0.16,WeatherCatV1.24B11,2015-04-25 10:03:00,
2015-04-25 06:08:00,53.4,49.9,29.80,WNW,292,2.0,4.0,88,0.04,,,0.16,WeatherCatV1.24B11,2015-04-25 10:08:00,
2015-04-25 06:13:00,53.4,49.9,29.81,WNW,291,0.0,5.0,88,0.04,,,0.16,WeatherCatV1.24B11,2015-04-25 10:13:00,
2015-04-25 06:18:00,53.4,49.9,29.81,WNW,291,0.0,1.0,88,0.00,,,0.17,WeatherCatV1.24B11,2015-04-25 10:18:00,
2015-04-25 06:23:00,53.5,50.0,29.81,WNW,291,0.0,0.0,88,0.00,,,0.17,WeatherCatV1.24B11,2015-04-25 10:23:00,
2015-04-25 06:28:00,53.6,50.1,29.81,WNW,291,0.0,0.0,88,0.05,,,0.18,WeatherCatV1.24B11,2015-04-25 10:28:00,
2015-04-25 06:33:00,53.5,50.0,29.81,WNW,292,0.0,0.0,88,0.05,,,0.18,WeatherCatV1.24B11,2015-04-25 10:33:00,
2015-04-25 06:43:00,53.5,50.0,29.81,WNW,292,0.0,2.0,88,0.08,,,0.20,WeatherCatV1.24B11,2015-04-25 10:43:00,
2015-04-25 06:48:00,53.5,50.0,29.82,WNW,292,1.0,1.0,88,0.08,,,0.20,WeatherCatV1.24B11,2015-04-25 10:48:00,
2015-04-25 06:53:00,53.6,50.1,29.83,WNW,292,0.0,2.0,88,0.16,,,0.22,WeatherCatV1.24B11,2015-04-25 10:53:00,
2015-04-25 06:58:00,53.6,50.1,29.83,WNW,292,0.0,0.0,88,0.16,,,0.23,WeatherCatV1.24B11,2015-04-25 10:58:00,
2015-04-25 07:03:00,53.6,50.1,29.83,WNW,292,0.0,0.0,88,0.15,,,0.24,WeatherCatV1.24B11,2015-04-25 11:03:00,
2015-04-25 07:08:00,53.5,50.0,29.83,WNW,292,0.0,0.0,88,0.23,,,0.26,WeatherCatV1.24B11,2015-04-25 11:08:00,
2015-04-25 07:13:00,53.6,50.1,29.84,WNW,292,0.0,0.0,88,0.19,,,0.28,WeatherCatV1.24B11,2015-04-25 11:13:00,
2015-04-25 07:18:00,53.6,50.1,29.84,WNW,292,0.0,0.0,88,0.18,,,0.29,WeatherCatV1.24B11,2015-04-25 11:18:00,
2015-04-25 07:23:00,53.6,50.1,29.83,WNW,292,0.0,0.0,88,0.34,,,0.32,WeatherCatV1.24B11,2015-04-25 11:23:00,
2015-04-25 07:28:00,53.6,50.1,29.83,WNW,292,4.0,4.0,88,0.40,,,0.35,WeatherCatV1.24B11,2015-04-25 11:28:00,
2015-04-25 07:33:00,53.7,50.2,29.83,WNW,292,0.0,4.0,88,0.40,,,0.38,WeatherCatV1.24B11,2015-04-25 11:33:00,
2015-04-25 07:38:00,53.7,50.2,29.83,WNW,292,2.0,4.0,88,0.32,,,0.41,WeatherCatV1.24B11,2015-04-25 11:38:00,
2015-04-25 07:43:00,53.6,50.1,29.83,WNW,292,0.0,0.0,88,0.18,,,0.43,WeatherCatV1.24B11,2015-04-25 11:43:00,
2015-04-25 07:48:00,53.6,50.1,29.82,WNW,292,0.0,0.0,88,0.19,,,0.44,WeatherCatV1.24B11,2015-04-25 11:48:00,
2015-04-25 07:53:00,53.6,50.1,29.82,WNW,292,0.0,1.0,88,0.16,,,0.45,WeatherCatV1.24B11,2015-04-25 11:53:00,
2015-04-25 07:58:00,53.7,50.2,29.81,WNW,292,0.0,0.0,88,0.10,,,0.46,WeatherCatV1.24B11,2015-04-25 11:58:00,
2015-04-25 08:03:00,53.7,50.2,29.81,WNW,292,0.0,0.0,88,0.21,,,0.48,WeatherCatV1.24B11,2015-04-25 12:03:00,
2015-04-25 08:08:00,53.7,50.2,29.80,WNW,292,0.0,0.0,88,0.12,,,0.49,WeatherCatV1.24B11,2015-04-25 12:08:00,
2015-04-25 08:13:00,53.7,50.2,29.79,WNW,292,4.0,4.0,88,0.12,,,0.49,WeatherCatV1.24B11,2015-04-25 12:13:00,
2015-04-25 08:18:00,53.8,50.3,29.80,WNW,292,5.0,6.0,88,0.12,,,0.50,WeatherCatV1.24B11,2015-04-25 12:18:00,
2015-04-25 08:23:00,54.0,50.5,29.79,WNW,292,5.0,5.0,88,0.06,,,0.50,WeatherCatV1.24B11,2015-04-25 12:23:00,
2015-04-25 08:28:00,54.0,50.5,29.78,WNW,292,1.0,6.0,88,0.04,,,0.50,WeatherCatV1.24B11,2015-04-25 12:28:00,
2015-04-25 08:33:00,54.0,50.5,29.77,WNW,299,1.0,2.0,88,0.00,,,0.50,WeatherCatV1.24B11,2015-04-25 12:33:00,
2015-04-25 08:38:00,54.2,51.0,29.76,WNW,299,0.0,0.0,89,0.00,,,0.50,WeatherCatV1.24B11,2015-04-25 12:38:00,
2015-04-25 08:43:00,54.3,51.1,29.76,WNW,299,0.0,0.0,89,0.00,,,0.50,WeatherCatV1.24B11,2015-04-25 12:43:00,
2015-04-25 08:48:00,54.5,51.3,29.76,WNW,299,4.0,4.0,89,0.00,,,0.50,WeatherCatV1.24B11,2015-04-25 12:48:00,
2015-04-25 08:53:00,54.6,51.1,29.75,WNW,299,1.0,5.0,88,0.00,,,0.50,WeatherCatV1.24B11,2015-04-25 12:53:00,
2015-04-25 08:58:00,54.8,51.3,29.74,WNW,299,0.0,1.0,88,0.00,,,0.50,WeatherCatV1.24B11,2015-04-25 12:58:00,
2015-04-25 09:03:00,55.0,51.8,29.75,WNW,299,0.0,0.0,89,0.00,,,0.50,WeatherCatV1.24B11,2015-04-25 13:03:00,
2015-04-25 09:08:00,55.1,51.9,29.75,WNW,299,2.0,2.0,89,0.00,,,0.50,WeatherCatV1.24B11,2015-04-25 13:08:00,
2015-04-25 09:13:00,55.1,51.9,29.75,WNW,299,0.0,0.0,89,0.00,,,0.50,WeatherCatV1.24B11,2015-04-25 13:13:00,
2015-04-25 09:18:00,55.1,51.6,29.74,WNW,299,0.0,0.0,88,0.00,,,0.50,WeatherCatV1.24B11,2015-04-25 13:18:00,
2015-04-25 09:23:00,55.0,51.5,29.74,WNW,299,1.0,5.0,88,0.00,,,0.50,WeatherCatV1.24B11,2015-04-25 13:23:00,
2015-04-25 09:28:00,55.0,51.5,29.74,NNE,27,0.0,4.0,88,0.00,,,0.50,WeatherCatV1.24B11,2015-04-25 13:28:00,
2015-04-25 09:33:00,55.1,51.6,29.74,NNE,27,0.0,2.0,88,0.00,,,0.50,WeatherCatV1.24B11,2015-04-25 13:33:00,
2015-04-25 09:38:00,55.2,51.7,29.74,NNE,27,0.0,0.0,88,0.00,,,0.50,WeatherCatV1.24B11,2015-04-25 13:38:00,
2015-04-25 09:43:00,55.2,51.7,29.73,NNE,24,2.0,3.0,88,0.00,,,0.50,WeatherCatV1.24B11,2015-04-25 13:43:00,
2015-04-25 09:53:00,55.2,51.7,29.74,North,5,3.0,3.0,88,0.00,,,0.50,WeatherCatV1.24B11,2015-04-25 13:53:00,
2015-04-25 09:58:00,55.3,51.8,29.74,North,5,0.0,1.0,88,0.00,,,0.50,WeatherCatV1.24B11,2015-04-25 13:58:00,
2015-04-25 10:03:00,55.4,51.9,29.75,North,5,0.0,0.0,88,0.00,,,0.50,WeatherCatV1.24B11,2015-04-25 14:03:00,
2015-04-25 10:08:00,55.5,52.0,29.75,North,5,0.0,1.0,88,0.00,,,0.50,WeatherCatV1.24B11,2015-04-25 14:08:00,
2015-04-25 10:13:00,55.4,51.9,29.75,North,5,0.0,0.0,88,0.00,,,0.50,WeatherCatV1.24B11,2015-04-25 14:13:00,
2015-04-25 10:18:00,55.4,51.9,29.74,North,5,0.0,0.0,88,0.00,,,0.50,WeatherCatV1.24B11,2015-04-25 14:18:00,
2015-04-25 10:23:00,55.5,52.0,29.74,North,5,0.0,3.0,88,0.00,,,0.50,WeatherCatV1.24B11,2015-04-25 14:23:00,
2015-04-25 10:28:00,55.6,52.1,29.74,North,5,0.0,1.0,88,0.00,,,0.50,WeatherCatV1.24B11,2015-04-25 14:28:00,
2015-04-25 10:33:00,55.8,52.3,29.75,North,5,0.0,2.0,88,0.00,,,0.50,WeatherCatV1.24B11,2015-04-25 14:33:00,
2015-04-25 10:38:00,55.9,52.4,29.74,North,5,0.0,1.0,88,0.00,,,0.50,WeatherCatV1.24B11,2015-04-25 14:38:00,
2015-04-25 10:43:00,55.9,52.4,29.74,North,5,0.0,1.0,88,0.00,,,0.50,WeatherCatV1.24B11,2015-04-25 14:43:00,
2015-04-25 10:48:00,55.9,52.4,29.73,North,5,1.0,4.0,88,0.00,,,0.50,WeatherCatV1.24B11,2015-04-25 14:48:00,
2015-04-25 10:53:00,56.0,52.5,29.73,North,5,3.0,3.0,88,0.00,,,0.50,WeatherCatV1.24B11,2015-04-25 14:53:00,
2015-04-25 10:58:00,56.1,52.6,29.73,North,5,1.0,2.0,88,0.00,,,0.50,WeatherCatV1.24B11,2015-04-25 14:58:00,
2015-04-25 11:03:00,56.3,52.8,29.72,North,5,0.0,3.0,88,0.00,,,0.50,WeatherCatV1.24B11,2015-04-25 15:03:00,
2015-04-25 11:08:00,56.5,53.0,29.72,North,5,0.0,1.0,88,0.00,,,0.50,WeatherCatV1.24B11,2015-04-25 15:08:00,
2015-04-25 11:13:00,56.5,53.0,29.73,North,5,0.0,2.0,88,0.00,,,0.50,WeatherCatV1.24B11,2015-04-25 15:13:00,
2015-04-25 11:18:00,56.6,53.1,29.73,North,5,0.0,0.0,88,0.00,,,0.50,WeatherCatV1.24B11,2015-04-25 15:18:00,
2015-04-25 11:23:00,56.7,53.2,29.72,North,5,0.0,0.0,88,0.00,,,0.50,WeatherCatV1.24B11,2015-04-25 15:23:00,
2015-04-25 11:28:00,56.9,53.4,29.71,North,5,1.0,2.0,88,0.00,,,0.50,WeatherCatV1.24B11,2015-04-25 15:28:00,
2015-04-25 11:33:00,57.0,53.5,29.71,North,5,1.0,2.0,88,0.00,,,0.50,WeatherCatV1.24B11,2015-04-25 15:33:00,
2015-04-25 11:38:00,57.2,53.7,29.71,North,5,0.0,1.0,88,0.00,,,0.50,WeatherCatV1.24B11,2015-04-25 15:38:00,
2015-04-25 11:43:00,57.3,53.8,29.71,North,5,0.0,0.0,88,0.00,,,0.50,WeatherCatV1.24B11,2015-04-25 15:43:00,